createdAt,value
2023-11-17T00:00:13.864Z,7.28
2023-11-17T00:02:42.118Z,6.73
2023-11-17T00:05:09.398Z,7.14
2023-11-17T00:07:36.159Z,7.92
2023-11-17T00:10:03.797Z,8.43
2023-11-17T00:12:31.002Z,8.17
2023-11-17T00:14:57.912Z,7.31
2023-11-17T00:17:24.950Z,6.83
2023-11-17T00:19:52.793Z,7.24
2023-11-17T00:22:21.629Z,7.90
2023-11-17T00:24:48.557Z,8.27
2023-11-17T00:27:15.993Z,7.55
2023-11-17T00:29:42.872Z,6.82
2023-11-17T00:32:09.567Z,6.65
2023-11-17T00:34:36.348Z,7.39
2023-11-17T00:37:08.147Z,7.97
2023-11-17T00:39:36.627Z,8.33
2023-11-17T00:42:04.296Z,8.54
2023-11-17T00:44:32.043Z,7.81
2023-11-17T00:46:59.657Z,6.97
2023-11-17T00:49:27.756Z,6.60
2023-11-17T00:51:55.458Z,7.13
2023-11-17T00:54:27.564Z,7.71
2023-11-17T00:56:55.511Z,8.20
2023-11-17T00:59:23.247Z,8.41
2023-11-17T01:01:53.144Z,7.74
2023-11-17T01:04:21.207Z,6.88
2023-11-17T01:06:55.007Z,6.64
2023-11-17T01:09:22.072Z,7.25
2023-11-17T01:11:49.030Z,7.77
2023-11-17T01:14:16.284Z,8.18
2023-11-17T01:16:43.139Z,8.34
2023-11-17T01:19:09.837Z,7.61
2023-11-17T01:21:36.757Z,6.70
2023-11-17T01:24:04.848Z,6.57
2023-11-17T01:26:32.798Z,7.17
2023-11-17T01:29:00.643Z,7.73
2023-11-17T01:31:27.962Z,8.14
2023-11-17T01:33:54.924Z,8.18
2023-11-17T01:36:22.071Z,8.37
2023-11-17T01:38:53.321Z,8.48
2023-11-17T01:41:22.590Z,8.31
2023-11-17T01:43:49.958Z,7.39
2023-11-17T01:46:19.039Z,6.64
2023-11-17T01:48:45.825Z,6.99
2023-11-17T01:51:13.492Z,7.39
2023-11-17T01:53:40.968Z,7.70
2023-11-17T01:56:07.954Z,7.95
2023-11-17T01:58:34.744Z,8.15
2023-11-17T02:01:02.722Z,8.34
2023-11-17T02:03:30.112Z,8.45
2023-11-17T02:06:08.971Z,8.43
2023-11-17T02:09:04.344Z,7.54
2023-11-17T02:11:38.622Z,6.81
2023-11-17T02:14:15.095Z,7.13
2023-11-17T02:16:43.739Z,7.60
2023-11-17T02:19:17.929Z,7.94
2023-11-17T02:21:46.968Z,8.10
2023-11-17T02:24:16.097Z,8.25
2023-11-17T02:26:53.815Z,8.25
2023-11-17T02:29:28.743Z,7.45
2023-11-17T02:32:00.038Z,6.68
2023-11-17T02:34:27.857Z,6.99
2023-11-17T02:36:55.467Z,7.42
2023-11-17T02:39:26.706Z,7.85
2023-11-17T02:41:59.478Z,8.08
2023-11-17T02:44:30.903Z,8.12
2023-11-17T02:47:04.340Z,7.42
2023-11-17T02:49:47.877Z,6.48
2023-11-17T02:52:25.651Z,6.21
2023-11-17T02:54:55.156Z,6.90
2023-11-17T02:57:25.545Z,7.42
2023-11-17T02:59:53.251Z,7.79
2023-11-17T03:02:22.567Z,8.01
2023-11-17T03:04:55.687Z,8.26
2023-11-17T03:07:22.873Z,8.19
2023-11-17T03:09:53.303Z,7.38
2023-11-17T03:12:21.067Z,6.50
2023-11-17T03:14:47.867Z,6.02
2023-11-17T03:17:20.115Z,6.61
2023-11-17T03:19:46.803Z,7.26
2023-11-17T03:22:15.394Z,7.70
2023-11-17T03:24:42.806Z,7.96
2023-11-17T03:27:09.468Z,7.97
2023-11-17T03:29:36.176Z,7.21
2023-11-17T03:32:03.107Z,6.56
2023-11-17T03:34:31.666Z,6.97
2023-11-17T03:37:03.818Z,7.49
2023-11-17T03:39:43.835Z,7.92
2023-11-17T03:42:17.235Z,8.15
2023-11-17T03:44:44.062Z,7.43
2023-11-17T03:47:11.446Z,6.68
2023-11-17T03:49:38.464Z,6.91
2023-11-17T03:52:05.822Z,7.44
2023-11-17T03:54:34.100Z,7.84
2023-11-17T03:57:04.723Z,7.95
2023-11-17T03:59:31.702Z,8.11
2023-11-17T04:02:01.324Z,8.34
2023-11-17T04:04:28.143Z,7.66
2023-11-17T04:06:56.296Z,6.62
2023-11-17T04:09:25.381Z,6.56
2023-11-17T04:11:54.266Z,7.11
2023-11-17T04:14:23.174Z,7.62
2023-11-17T04:16:51.084Z,7.95
2023-11-17T04:19:21.595Z,8.04
2023-11-17T04:21:49.817Z,8.24
2023-11-17T04:24:18.248Z,8.06
2023-11-17T04:26:45.888Z,7.10
2023-11-17T04:29:12.740Z,6.43
2023-11-17T04:31:39.475Z,6.82
2023-11-17T04:34:07.211Z,7.32
2023-11-17T04:36:34.382Z,7.74
2023-11-17T04:39:02.670Z,8.03
2023-11-17T04:41:33.074Z,7.98
2023-11-17T04:44:00.141Z,7.12
2023-11-17T04:46:26.972Z,6.38
2023-11-17T04:48:53.843Z,6.68
2023-11-17T04:51:20.678Z,7.19
2023-11-17T04:53:47.329Z,7.71
2023-11-17T04:56:14.596Z,7.87
2023-11-17T04:58:41.678Z,8.02
2023-11-17T05:01:08.702Z,7.98
2023-11-17T05:03:36.671Z,7.25
2023-11-17T05:06:07.828Z,6.48
2023-11-17T05:08:37.303Z,6.70
2023-11-17T05:11:07.517Z,7.19
2023-11-17T05:13:36.428Z,7.54
2023-11-17T05:16:05.385Z,7.78
2023-11-17T05:18:32.091Z,7.94
2023-11-17T05:20:58.775Z,8.10
2023-11-17T05:23:25.469Z,7.38
2023-11-17T05:25:52.201Z,6.47
2023-11-17T05:28:19.598Z,6.55
2023-11-17T05:30:47.319Z,7.16
2023-11-17T05:33:19.572Z,7.46
2023-11-17T05:35:47.425Z,7.67
2023-11-17T05:38:15.494Z,7.85
2023-11-17T05:40:42.244Z,8.13
2023-11-17T05:43:08.982Z,7.52
2023-11-17T05:45:35.980Z,6.46
2023-11-17T05:48:07.537Z,6.25
2023-11-17T05:50:34.707Z,6.80
2023-11-17T05:53:01.544Z,7.33
2023-11-17T05:55:28.351Z,7.72
2023-11-17T05:57:55.337Z,7.86
2023-11-17T06:00:22.219Z,7.85
2023-11-17T06:02:49.654Z,6.98
2023-11-17T06:05:17.049Z,6.29
2023-11-17T06:07:43.827Z,6.74
2023-11-17T06:10:11.906Z,7.14
2023-11-17T06:12:38.773Z,7.54
2023-11-17T06:15:07.371Z,7.71
2023-11-17T06:17:36.464Z,7.98
2023-11-17T06:20:06.866Z,7.93
2023-11-17T06:22:33.700Z,7.07
2023-11-17T06:25:00.685Z,6.37
2023-11-17T06:27:28.710Z,6.72
2023-11-17T06:29:57.152Z,7.26
2023-11-17T06:32:24.343Z,7.67
2023-11-17T06:34:51.307Z,7.94
2023-11-17T06:37:18.882Z,8.03
2023-11-17T06:39:48.208Z,8.08
2023-11-17T06:42:15.013Z,8.21
2023-11-17T06:44:42.098Z,8.15
2023-11-17T06:47:09.312Z,7.02
2023-11-17T06:49:36.199Z,6.37
2023-11-17T06:52:07.567Z,6.80
2023-11-17T06:54:34.536Z,7.31
2023-11-17T06:57:01.367Z,7.66
2023-11-17T06:59:28.214Z,7.88
2023-11-17T07:01:55.230Z,8.15
2023-11-17T07:04:23.237Z,8.24
2023-11-17T07:06:50.391Z,8.17
2023-11-17T07:09:24.849Z,7.14
2023-11-17T07:11:55.433Z,6.35
2023-11-17T07:14:26.508Z,6.69
2023-11-17T07:16:54.096Z,7.31
2023-11-17T07:19:21.517Z,7.74
2023-11-17T07:21:51.406Z,7.94
2023-11-17T07:24:21.162Z,8.14
2023-11-17T07:26:48.824Z,8.12
2023-11-17T07:29:17.247Z,8.41
2023-11-17T07:31:48.820Z,7.44
2023-11-17T07:34:19.985Z,6.70
2023-11-17T07:36:48.764Z,6.98
2023-11-17T07:39:20.814Z,7.41
2023-11-17T07:41:48.600Z,7.80
2023-11-17T07:44:20.322Z,7.97
2023-11-17T07:46:48.567Z,8.13
2023-11-17T07:49:19.486Z,8.30
2023-11-17T07:51:48.934Z,8.31
2023-11-17T07:54:18.305Z,8.40
2023-11-17T07:56:49.183Z,8.42
2023-11-17T07:59:16.307Z,8.49
2023-11-17T08:01:43.142Z,7.78
2023-11-17T08:04:10.307Z,6.99
2023-11-17T08:06:40.367Z,7.12
2023-11-17T08:09:10.939Z,7.61
2023-11-17T08:11:41.456Z,7.91
2023-11-17T08:14:09.918Z,8.17
2023-11-17T08:16:37.457Z,8.17
2023-11-17T08:19:15.072Z,8.13
2023-11-17T08:21:50.146Z,8.30
2023-11-17T08:24:21.281Z,8.34
2023-11-17T08:26:48.213Z,8.24
2023-11-17T08:29:15.171Z,7.32
2023-11-17T08:31:41.994Z,6.62
2023-11-17T08:34:09.136Z,6.95
2023-11-17T08:36:35.978Z,7.37
2023-11-17T08:39:03.541Z,7.80
2023-11-17T08:41:30.167Z,8.01
2023-11-17T08:43:59.028Z,8.15
2023-11-17T08:46:29.641Z,8.14
2023-11-17T08:48:57.703Z,8.20
2023-11-17T08:51:25.120Z,8.40
2023-11-17T08:53:52.125Z,8.48
2023-11-17T08:56:19.003Z,8.53
2023-11-17T08:58:45.851Z,8.02
2023-11-17T09:01:13.742Z,6.86
2023-11-17T09:03:40.588Z,6.61
2023-11-17T09:06:07.757Z,7.04
2023-11-17T09:08:34.542Z,7.51
2023-11-17T09:11:01.385Z,7.78
2023-11-17T09:13:29.941Z,8.09
2023-11-17T09:15:57.494Z,8.36
2023-11-17T09:18:24.608Z,8.53
2023-11-17T09:20:51.609Z,8.56
2023-11-17T09:23:19.073Z,8.67
2023-11-17T09:25:46.236Z,8.75
2023-11-17T09:28:13.595Z,8.86
2023-11-17T09:30:42.321Z,8.66
2023-11-17T09:33:10.473Z,7.59
2023-11-17T09:35:38.224Z,6.88
2023-11-17T09:38:06.029Z,7.25
2023-11-17T09:40:35.350Z,7.72
2023-11-17T09:43:11.699Z,7.99
2023-11-17T09:45:38.787Z,8.33
2023-11-17T09:48:08.645Z,8.55
2023-11-17T10:03:40.329Z,8.09
2023-11-17T10:06:09.279Z,8.25
2023-11-17T10:08:40.599Z,8.42
2023-11-17T10:11:08.706Z,7.59
2023-11-17T10:13:36.769Z,6.82
2023-11-17T10:16:04.977Z,7.04
2023-11-17T10:18:33.292Z,7.49
2023-11-17T10:21:00.239Z,7.84
2023-11-17T10:23:28.725Z,8.07
2023-11-17T10:25:56.744Z,8.36
2023-11-17T10:28:26.573Z,8.40
2023-11-17T10:30:56.742Z,7.58
2023-11-17T10:33:30.335Z,7.02
2023-11-17T10:36:16.898Z,7.50
2023-11-17T10:38:48.141Z,8.20
2023-11-17T10:41:23.251Z,8.73
2023-11-17T10:43:53.700Z,9.03
2023-11-17T10:46:27.677Z,8.27
2023-11-17T10:49:01.816Z,7.42
2023-11-17T10:51:30.216Z,7.03
2023-11-17T10:54:13.355Z,7.60
2023-11-17T10:56:41.884Z,8.34
2023-11-17T10:59:22.422Z,8.91
2023-11-17T11:01:51.625Z,9.31
2023-11-17T11:04:27.465Z,8.94
2023-11-17T11:06:59.193Z,7.96
2023-11-17T11:09:37.054Z,7.10
2023-11-17T11:23:29.090Z,7.74
2023-11-17T11:25:56.601Z,8.14
2023-11-17T11:28:23.602Z,8.60
2023-11-17T11:30:50.923Z,8.21
2023-11-17T11:33:21.969Z,8.46
2023-11-17T11:35:48.912Z,8.93
2023-11-17T11:38:15.559Z,8.45
2023-11-17T11:40:44.905Z,7.61
2023-11-17T11:43:12.285Z,7.03
2023-11-17T11:45:39.613Z,7.56
2023-11-17T11:48:09.370Z,8.19
2023-11-17T11:50:39.662Z,8.71
2023-11-17T11:53:10.965Z,8.34
2023-11-17T11:55:37.961Z,7.63
2023-11-17T11:58:05.086Z,7.19
2023-11-17T12:00:35.304Z,7.68
2023-11-17T12:03:04.800Z,8.25
2023-11-17T12:05:34.684Z,8.67
2023-11-17T12:08:05.905Z,8.34
2023-11-17T12:10:44.211Z,7.42
2023-11-17T12:13:38.076Z,7.14
2023-11-17T12:16:10.460Z,7.89
2023-11-17T12:18:37.757Z,8.35
2023-11-17T12:21:26.054Z,8.47
2023-11-17T12:23:58.270Z,7.49
2023-11-17T12:26:28.950Z,7.09
2023-11-17T12:28:57.892Z,7.65
2023-11-17T12:31:25.665Z,8.25
2023-11-17T12:33:55.584Z,8.58
2023-11-17T12:36:24.667Z,8.78
2023-11-17T12:38:56.742Z,8.81
2023-11-17T12:41:28.965Z,8.20
2023-11-17T12:43:56.852Z,7.32
2023-11-17T12:46:32.990Z,6.91
2023-11-17T12:49:00.677Z,7.38
2023-11-17T12:51:29.618Z,7.95
2023-11-17T12:53:59.515Z,8.39
2023-11-17T12:56:27.081Z,8.68
2023-11-17T12:58:54.664Z,8.67
2023-11-17T13:01:24.320Z,7.95
2023-11-17T13:03:53.291Z,7.31
2023-11-17T13:06:25.119Z,7.76
2023-11-17T13:08:52.537Z,8.39
2023-11-17T13:11:20.197Z,8.48
2023-11-17T13:13:47.881Z,7.75
2023-11-17T13:16:16.683Z,6.94
2023-11-17T13:18:45.076Z,7.08
2023-11-17T13:21:18.442Z,7.74
2023-11-17T13:23:46.605Z,8.07
2023-11-17T13:26:21.254Z,8.23
2023-11-17T13:28:49.977Z,8.47
2023-11-17T13:31:36.739Z,7.83
2023-11-17T13:34:12.995Z,7.11
2023-11-17T13:36:39.944Z,7.48
2023-11-17T13:39:16.399Z,7.98
2023-11-17T13:41:45.519Z,8.40
2023-11-17T13:44:24.743Z,8.64
2023-11-17T13:46:59.582Z,8.61
2023-11-17T13:49:26.980Z,7.91
2023-11-17T13:51:58.962Z,7.14
2023-11-17T13:54:28.844Z,6.68
2023-11-17T13:56:55.872Z,7.14
2023-11-17T13:59:24.758Z,7.67
2023-11-17T14:01:54.247Z,8.07
2023-11-17T14:04:22.020Z,8.28
2023-11-17T14:06:54.527Z,8.39
2023-11-17T14:09:23.627Z,8.45
2023-11-17T14:11:55.184Z,8.35
2023-11-17T14:14:28.926Z,7.49
2023-11-17T14:16:56.125Z,6.72
2023-11-17T14:19:29.610Z,6.90
2023-11-17T14:21:56.431Z,7.33
2023-11-17T14:24:23.100Z,7.62
2023-11-17T14:26:56.879Z,7.85
2023-11-17T14:29:29.303Z,7.98
2023-11-17T14:31:56.260Z,8.02
2023-11-17T14:34:23.090Z,8.03
2023-11-17T14:36:50.503Z,8.05
2023-11-17T14:39:30.981Z,8.08
2023-11-17T14:41:58.322Z,8.08
2023-11-17T14:44:29.757Z,8.06
2023-11-17T14:46:57.782Z,8.07
2023-11-17T14:49:25.158Z,8.10
2023-11-17T14:51:52.210Z,8.03
2023-11-17T14:54:19.167Z,7.92
2023-11-17T14:56:46.201Z,7.90
2023-11-17T14:59:14.039Z,7.90
2023-11-17T15:01:44.135Z,7.88
2023-11-17T15:04:11.137Z,7.93
2023-11-17T15:06:37.944Z,7.97
2023-11-17T15:09:05.668Z,8.05
2023-11-17T15:11:33.309Z,8.12
2023-11-17T15:14:07.018Z,8.17
2023-11-17T15:16:39.159Z,8.16
2023-11-17T15:19:06.847Z,8.18
2023-11-17T15:21:39.169Z,8.24
2023-11-17T15:24:10.375Z,8.12
2023-11-17T15:26:37.676Z,7.26
2023-11-17T15:29:06.454Z,6.49
2023-11-17T15:31:33.812Z,6.62
2023-11-17T15:34:03.002Z,7.02
2023-11-17T15:36:30.517Z,7.28
2023-11-17T15:39:02.073Z,7.45
2023-11-17T15:41:32.784Z,7.52
2023-11-17T15:43:59.695Z,7.57
2023-11-17T15:46:31.163Z,7.67
2023-11-17T15:48:59.473Z,7.77
2023-11-17T15:51:26.411Z,7.83
2023-11-17T15:53:53.260Z,7.91
2023-11-17T15:56:20.039Z,7.95
2023-11-17T15:58:46.772Z,8.04
2023-11-17T16:01:13.842Z,8.10
2023-11-17T16:03:40.893Z,8.17
2023-11-17T16:06:09.708Z,8.08
2023-11-17T16:08:37.390Z,7.32
2023-11-17T16:11:09.932Z,6.39
2023-11-17T16:13:40.821Z,5.82
2023-11-17T16:16:09.713Z,6.21
2023-11-17T16:18:39.059Z,6.71
2023-11-17T16:21:08.016Z,7.07
2023-11-17T16:23:37.217Z,7.30
2023-11-17T16:26:11.083Z,7.51
2023-11-17T16:28:39.621Z,7.64
2023-11-17T16:31:07.715Z,7.70
2023-11-17T16:33:39.210Z,7.73
2023-11-17T16:36:07.513Z,7.78
2023-11-17T16:38:37.105Z,7.84
2023-11-17T16:41:05.201Z,7.85
2023-11-17T16:43:32.981Z,7.87
2023-11-17T16:46:00.569Z,7.92
2023-11-17T16:48:29.520Z,7.93
2023-11-17T16:50:56.196Z,7.92
2023-11-17T16:53:23.006Z,7.96
2023-11-17T16:55:51.130Z,8.00
2023-11-17T16:58:19.943Z,8.05
2023-11-17T17:00:51.317Z,8.07
2023-11-17T17:03:22.699Z,8.10
2023-11-17T17:05:50.399Z,8.15
2023-11-17T17:08:17.350Z,8.03
2023-11-17T17:10:45.558Z,7.15
2023-11-17T17:13:14.161Z,6.33
2023-11-17T17:15:42.042Z,6.43
2023-11-17T17:18:11.097Z,6.88
2023-11-17T17:20:39.308Z,7.22
2023-11-17T17:23:08.430Z,7.42
2023-11-17T17:25:38.771Z,7.49
2023-11-17T17:28:05.711Z,7.56
2023-11-17T17:30:33.744Z,7.68
2023-11-17T17:33:04.593Z,7.80
2023-11-17T17:35:35.779Z,7.88
2023-11-17T17:38:03.698Z,7.98
2023-11-17T17:40:30.718Z,8.03
2023-11-17T17:42:59.035Z,8.07
2023-11-17T17:45:29.128Z,8.09
2023-11-17T17:47:57.867Z,8.11
2023-11-17T17:50:29.810Z,8.00
2023-11-17T17:52:59.086Z,7.19
2023-11-17T17:55:27.699Z,6.34
2023-11-17T17:57:54.954Z,6.47
2023-11-17T18:00:25.179Z,6.91
2023-11-17T18:02:58.464Z,7.22
2023-11-17T18:05:25.920Z,7.44
2023-11-17T18:07:52.886Z,7.61
2023-11-17T18:10:22.941Z,7.72
2023-11-17T18:12:52.003Z,7.82
2023-11-17T18:15:22.910Z,7.92
2023-11-17T18:17:52.553Z,7.99
2023-11-17T18:20:25.019Z,8.05
2023-11-17T18:22:53.451Z,8.12
2023-11-17T18:25:22.402Z,8.07
2023-11-17T18:27:51.406Z,7.24
2023-11-17T18:30:19.775Z,6.29
2023-11-17T18:32:47.549Z,5.95
2023-11-17T18:35:16.750Z,6.35
2023-11-17T18:37:48.490Z,6.76
2023-11-17T18:40:17.680Z,7.04
2023-11-17T18:42:45.436Z,7.24
2023-11-17T18:45:14.227Z,7.41
2023-11-17T18:47:41.939Z,7.56
2023-11-17T18:50:12.073Z,7.66
2023-11-17T18:52:45.392Z,7.78
2023-11-17T18:55:12.845Z,7.85
2023-11-17T18:57:40.676Z,7.91
2023-11-17T19:00:33.969Z,7.94
2023-11-17T19:03:01.435Z,8.01
2023-11-17T19:05:29.187Z,8.03
2023-11-17T19:07:56.099Z,8.08
2023-11-17T19:10:25.673Z,8.07
2023-11-17T19:12:52.812Z,8.05
2023-11-17T19:15:21.087Z,7.99
2023-11-17T19:17:48.606Z,8.12
2023-11-17T19:20:16.646Z,8.08
2023-11-17T19:22:45.077Z,7.31
2023-11-17T19:25:12.879Z,6.39
2023-11-17T19:27:41.069Z,5.82
2023-11-17T19:30:17.169Z,6.16
2023-11-17T19:32:49.478Z,6.69
2023-11-17T19:35:20.324Z,7.05
2023-11-17T19:37:49.695Z,7.29
2023-11-17T19:40:17.774Z,7.42
2023-11-17T19:42:45.822Z,7.57
2023-11-17T19:45:17.999Z,7.73
2023-11-17T19:47:45.817Z,7.83
2023-11-17T19:50:15.831Z,7.94
2023-11-17T19:52:44.896Z,8.02
2023-11-17T19:55:12.076Z,8.09
2023-11-17T19:57:39.594Z,8.14
2023-11-17T20:00:07.886Z,8.08
2023-11-17T20:02:36.568Z,7.30
2023-11-17T20:05:03.912Z,6.40
2023-11-17T20:07:32.187Z,5.81
2023-11-17T20:09:59.788Z,6.14
2023-11-17T20:12:27.713Z,6.65
2023-11-17T20:14:58.014Z,7.00
2023-11-17T20:17:24.948Z,7.20
2023-11-17T20:19:51.885Z,7.37
2023-11-17T20:22:20.394Z,7.53
2023-11-17T20:24:47.685Z,7.62
2023-11-17T20:27:16.156Z,7.68
2023-11-17T20:29:43.609Z,7.77
2023-11-17T20:32:10.347Z,7.83
2023-11-17T20:34:38.120Z,7.88
2023-11-17T20:37:06.576Z,7.87
2023-11-17T20:39:35.028Z,7.85
2023-11-17T20:42:01.957Z,7.92
2023-11-17T20:44:28.603Z,7.96
2023-11-17T20:46:57.067Z,7.90
2023-11-17T20:49:24.207Z,7.92
2023-11-17T20:51:51.317Z,7.88
2023-11-17T20:54:18.072Z,7.80
2023-11-17T20:56:46.086Z,7.74
2023-11-17T20:59:16.374Z,7.69
2023-11-17T21:01:47.780Z,7.68
2023-11-17T21:04:17.753Z,7.73
2023-11-17T21:06:44.734Z,7.79
2023-11-17T21:09:12.238Z,7.64
2023-11-17T21:11:43.083Z,7.68
2023-11-17T21:14:11.649Z,7.75
2023-11-17T21:16:39.495Z,7.78
2023-11-17T21:19:06.146Z,7.76
2023-11-17T21:21:34.384Z,7.75
2023-11-17T21:24:03.489Z,7.79
2023-11-17T21:26:32.042Z,7.82
2023-11-17T21:29:01.005Z,7.85
2023-11-17T21:31:36.412Z,7.86
2023-11-17T21:34:09.073Z,7.88
2023-11-17T21:36:35.991Z,7.84
2023-11-17T21:39:03.195Z,6.94
2023-11-17T21:41:31.207Z,6.08
2023-11-17T21:43:58.528Z,6.18
2023-11-17T21:46:26.387Z,6.55
2023-11-17T21:48:53.164Z,6.85
2023-11-17T21:51:19.790Z,7.01
2023-11-17T21:53:46.413Z,7.12
2023-11-17T21:56:20.414Z,7.24
2023-11-17T21:58:47.147Z,7.33
2023-11-17T22:01:15.052Z,7.42
2023-11-17T22:03:42.070Z,7.45
2023-11-17T22:06:12.309Z,7.51
2023-11-17T22:08:40.904Z,7.56
2023-11-17T22:11:08.583Z,7.61
2023-11-17T22:13:37.433Z,7.68
2023-11-17T22:16:06.330Z,7.70
2023-11-17T22:18:33.304Z,7.73
2023-11-17T22:20:59.975Z,7.72
2023-11-17T22:23:26.703Z,7.71
2023-11-17T22:25:53.457Z,7.74
2023-11-17T22:28:20.240Z,7.79
2023-11-17T22:30:47.145Z,7.80
2023-11-17T22:33:14.008Z,7.85
2023-11-17T22:35:45.423Z,7.83
2023-11-17T22:38:12.487Z,7.83
2023-11-17T22:40:39.297Z,7.85
2023-11-17T22:43:06.539Z,7.92
2023-11-17T22:45:35.214Z,7.83
2023-11-17T22:48:02.204Z,6.94
2023-11-17T22:50:29.066Z,5.96
2023-11-17T22:52:55.813Z,5.41
2023-11-17T22:55:22.911Z,5.76
2023-11-17T22:57:50.491Z,6.26
2023-11-17T23:00:34.369Z,6.57
2023-11-17T23:03:04.136Z,6.87
2023-11-17T23:05:34.275Z,7.03
2023-11-17T23:08:02.475Z,7.15
2023-11-17T23:10:31.538Z,7.27
2023-11-17T23:12:58.878Z,7.34
2023-11-17T23:15:26.857Z,7.39
2023-11-17T23:17:53.797Z,7.48
2023-11-17T23:20:20.689Z,7.50
2023-11-17T23:22:47.445Z,7.51
2023-11-17T23:25:14.382Z,7.55
2023-11-17T23:27:41.659Z,7.59
2023-11-17T23:30:10.067Z,7.58
2023-11-17T23:32:38.449Z,7.61
2023-11-17T23:35:06.104Z,7.71
2023-11-17T23:37:32.988Z,7.74
2023-11-17T23:39:59.752Z,7.75
2023-11-17T23:42:27.936Z,7.74
2023-11-17T23:44:54.625Z,7.80
2023-11-17T23:47:21.335Z,7.82
2023-11-17T23:49:48.100Z,7.86
2023-11-17T23:52:14.780Z,7.86
2023-11-17T23:54:41.395Z,7.85
2023-11-17T23:57:08.546Z,7.83
2023-11-17T23:59:35.164Z,7.84
